Accueil
METAR-TAF:

METAR-TAF

Aéroports :

Londres, Angleterre

Aéroport de Londres-City

latitude: 51-30N, longitude: 000-03E, altitude: 5 m

Observation

Le bulletin a été fait il y a 26 minutes, à 01:20 UTC
Vent 12 kt de ouest/sud-ouest
Température 18°C
Humidité 73%
Pression 1015 hPa
Visibilité 10 km ou plus
Quelques nuages à une hauteur de 2000 ft
Nuages épars à une hauteur de 3300 ft

METAR: EGLC 240120Z AUTO 24012KT 9999 FEW020 SCT033 18/13 Q1015

Heure: 02:46 (01:46 UTC)

Prévision

Le bulletin a été fait il y a 8 heures et 43 minutes, à 17:03 UTC
Prévision valable du 23 à 18 UTC au 23 à 21 UTC
Vent 12 kt de ouest/sud-ouest
Visibilité 10 km ou plus
Nuages épars à une hauteur de 2500 ft
Probabilité 30% :
Temporairement
du 23 à 18 UTC au 23 à 21 UTC
Vent 15 kt de ouest avec des rafales jusqu'à 25 kt

TAF: EGLC 231703Z 2318/2321 25012KT 9999 SCT025 PROB30 TEMPO 2318/2321 27015G25KT

Observations et prévisions météorologiques de plus de 4000 aéroports (messages METAR et TAF).

Les stations disponibles sont représentées par des disques jaunes et rouges sur la carte.

Passer la souris dessus pour voir le nom de la station.

Cliquer dessus pour voir les observations et prévisions météorologiques.

Pour changer de carte: cliquez sur les boutons verts avec une croix noire pour zoomer, sur le bouton vert avec un tiret pour effectuer un zoom arrière, ou sur les flèches vertes pour les cartes adjacentes.


METAR-TAF: